Kaspiysk, Russia
Current Conditions -  °F | °C
As of 2:00 AM on Saturday 20 Dec 2014 (Local Time) from URML Reporting Station
Scattered Clouds Scattered Clouds  
Wind Chill: 37°   Ceiling: Unl
Heat Index: 37°   Visibility: 4mi
Dew Point: 36°   Wind: 2mph
Humidity: 93%   Direction: 200°SSW
Pressure: 30.18"   Gusts: NA
Location:  42.88°N, 47.64°E
Report Text: URML 192300Z 20001MPS 6000 ///100 SCT100 03/02 Q1022 NOSIG RMKQFE766/1021 SC070
Loading
Personal Weather Stations






























Interactive Weather Map New forecast layout! Learn more

10-Day Weather Forecast

Advertisements
Track Severe Weather on mobile